This is the latest recevied weather packets stored in our database for station/object W3BRL. If no packets are shown the sender has not sent any weather packets the latest 10 day(s).
| Time | Temp. | Humidity | Pressure | Rain* | Wind** | Luminosity | Snow |
|---|---|---|---|---|---|---|---|
| 1777971871 | 15° C | 71% | 1005.7 hPa | 0 mm | - | 0 W/m² | - |
| 1777971568 | 15° C | 72% | 1005.6 hPa | 0 mm | - | 0 W/m² | - |
| 1777971266 | 15° C | 72% | 1005.8 hPa | 0 mm | - | 0 W/m² | - |
| 1777970964 | 15° C | 72% | 1005.6 hPa | 0 mm | - | 0 W/m² | - |
| 1777970662 | 15.56° C | 72% | 1005.7 hPa | 0 mm | - | 0 W/m² | - |
| 1777970360 | 15° C | 73% | 1005.8 hPa | 0 mm | - | 0 W/m² | - |
| 1777970057 | 15° C | 74% | 1005.7 hPa | 0 mm | - | 0 W/m² | - |
| 1777969753 | 15° C | 75% | 1005.6 hPa | 0 mm | - | 0 W/m² | - |
| 1777969449 | 15° C | 75% | 1005.7 hPa | 0 mm | - | 0 W/m² | - |
| 1777969146 | 15° C | 75% | 1006 hPa | 0 mm | - | 0 W/m² | - |
| 1777968843 | 15.56° C | 73% | 1005.9 hPa | 0 mm | - | 0 W/m² | - |
| 1777968539 | 15.56° C | 73% | 1005.7 hPa | 0 mm | - | 0 W/m² | - |
| 1777968235 | 15.56° C | 72% | 1005.7 hPa | 0 mm | - | 0 W/m² | - |
| 1777967931 | 16.11° C | 69% | 1005.8 hPa | 0 mm | - | 0 W/m² | - |
| 1777967628 | 16.67° C | 65% | 1005.8 hPa | 0 mm | - | 0 W/m² | - |
| 1777967325 | 17.22° C | 62% | 1005.7 hPa | 0 mm | - | 0 W/m² | - |
| 1777967022 | 17.78° C | 58% | 1006.2 hPa | 0 mm | - | 0 W/m² | - |
| 1777966720 | 17.78° C | 57% | 1005.9 hPa | 0 mm | - | 0 W/m² | - |
| 1777966418 | 17.78° C | 56% | 1005.9 hPa | 0 mm | - | 0 W/m² | - |
| 1777966114 | 17.78° C | 56% | 1005.9 hPa | 0 mm | - | 0 W/m² | - |
| 1777965810 | 17.78° C | 56% | 1006.1 hPa | 0 mm | - | 0 W/m² | - |
| 1777965507 | 17.78° C | 56% | 1005.9 hPa | 0 mm | - | 0 W/m² | - |
| 1777965203 | 17.78° C | 56% | 1005.8 hPa | 0 mm | - | 0 W/m² | - |
| 1777964901 | 17.22° C | 56% | 1005.6 hPa | 0 mm | - | 0 W/m² | - |
| 1777964598 | 17.22° C | 57% | 1005.5 hPa | 0 mm | - | 0 W/m² | - |
* Rain latest hour (hover to see other rain measurements)
** Current wind speed in m/s (hover to see current wind gust speed)